createdAt,value
2023-02-22T00:01:01.139Z,72
2023-02-22T00:06:02.942Z,73
2023-02-22T00:11:04.151Z,73
2023-02-22T00:16:06.288Z,72
2023-02-22T00:21:08.090Z,73
2023-02-22T00:26:09.811Z,73
2023-02-22T00:31:11.877Z,73
2023-02-22T00:36:13.089Z,72
2023-02-22T00:41:15.377Z,73
2023-02-22T00:46:16.402Z,73
2023-02-22T00:51:18.315Z,73
2023-02-22T00:56:19.908Z,73
2023-02-22T01:01:21.415Z,74
2023-02-22T01:06:22.732Z,74
2023-02-22T01:11:24.692Z,74
2023-02-22T01:16:25.962Z,74
2023-02-22T01:21:28.058Z,74
2023-02-22T01:26:29.712Z,74
2023-02-22T01:31:31.070Z,74
2023-02-22T01:36:32.648Z,75
2023-02-22T01:41:34.159Z,75
2023-02-22T01:46:36.014Z,75
2023-02-22T01:51:37.404Z,74
2023-02-22T01:56:38.788Z,74
2023-02-22T02:01:40.129Z,74
2023-02-22T02:06:42.008Z,75
2023-02-22T02:11:43.931Z,75
2023-02-22T02:16:46.289Z,74
2023-02-22T02:21:47.804Z,75
2023-02-22T02:26:49.995Z,76
2023-02-22T02:31:51.279Z,76
2023-02-22T02:36:52.489Z,76
2023-02-22T02:41:54.421Z,76
2023-02-22T02:46:55.856Z,76
2023-02-22T02:51:57.062Z,76
2023-02-22T02:56:58.508Z,76
2023-02-22T03:02:00.126Z,77
2023-02-22T03:07:02.309Z,76
2023-02-22T03:12:03.832Z,77
2023-02-22T03:17:05.493Z,76
2023-02-22T03:22:06.962Z,77
2023-02-22T03:27:08.248Z,77
2023-02-22T03:32:09.426Z,78
2023-02-22T03:37:11.353Z,77
2023-02-22T03:42:13.281Z,78
2023-02-22T03:47:15.301Z,78
2023-02-22T03:52:17.092Z,78
2023-02-22T03:57:19.009Z,78
2023-02-22T04:02:20.869Z,78
2023-02-22T04:07:22.191Z,78
2023-02-22T04:12:23.945Z,78
2023-02-22T04:17:25.620Z,78
2023-02-22T04:22:27.331Z,78
2023-02-22T04:27:29.000Z,78
2023-02-22T04:32:30.650Z,77
2023-02-22T04:37:32.490Z,77
2023-02-22T04:42:34.671Z,77
2023-02-22T04:47:35.865Z,78
2023-02-22T04:52:37.776Z,78
2023-02-22T04:57:39.705Z,77
2023-02-22T05:02:41.309Z,77
2023-02-22T05:07:42.953Z,77
2023-02-22T05:12:44.878Z,77
2023-02-22T05:17:45.985Z,77
2023-02-22T05:22:47.663Z,76
2023-02-22T05:27:49.758Z,76
2023-02-22T05:32:51.385Z,76
2023-02-22T05:37:52.720Z,76
2023-02-22T05:42:54.862Z,76
2023-02-22T05:47:56.316Z,76
2023-02-22T05:52:57.940Z,76
2023-02-22T05:58:00.205Z,76
2023-02-22T06:03:01.578Z,76
2023-02-22T06:08:03.023Z,76
2023-02-22T06:13:05.398Z,76
2023-02-22T06:18:07.170Z,76
2023-02-22T06:23:08.758Z,76
2023-02-22T06:28:10.191Z,76
2023-02-22T06:33:11.560Z,78
2023-02-22T06:38:13.781Z,79
2023-02-22T06:43:15.316Z,80
2023-02-22T06:48:16.461Z,80
2023-02-22T06:53:18.621Z,80
2023-02-22T06:58:20.620Z,80
2023-02-22T07:03:22.670Z,80
2023-02-22T07:08:24.274Z,78
2023-02-22T07:13:25.828Z,77
2023-02-22T07:18:28.944Z,76
2023-02-22T07:23:28.781Z,75
2023-02-22T07:28:30.472Z,73
2023-02-22T07:33:32.302Z,71
2023-02-22T07:38:33.879Z,69
2023-02-22T07:43:35.241Z,65
2023-02-22T07:48:37.015Z,61
2023-02-22T07:53:38.444Z,58
2023-02-22T07:58:40.380Z,55
2023-02-22T08:03:42.314Z,52
2023-02-22T08:08:43.643Z,54
2023-02-22T08:13:45.139Z,49
2023-02-22T08:18:46.797Z,43
2023-02-22T08:23:48.688Z,42
2023-02-22T08:28:50.248Z,40
2023-02-22T08:33:52.104Z,36
2023-02-22T08:38:53.705Z,36
2023-02-22T08:43:55.489Z,38
2023-02-22T08:48:57.039Z,37
2023-02-22T08:53:58.733Z,36
2023-02-22T08:58:59.911Z,34
2023-02-22T09:04:01.812Z,33
2023-02-22T09:09:03.023Z,31
2023-02-22T09:14:04.976Z,28
2023-02-22T09:19:06.534Z,27
2023-02-22T09:24:08.629Z,27
2023-02-22T09:29:10.037Z,26
2023-02-22T09:34:11.914Z,25
2023-02-22T09:39:13.531Z,26
2023-02-22T09:44:15.599Z,24
2023-02-22T09:49:17.083Z,24
2023-02-22T09:54:18.585Z,25
2023-02-22T09:59:20.018Z,23
2023-02-22T10:04:21.873Z,23
2023-02-22T10:09:23.945Z,23
2023-02-22T10:14:25.630Z,22
2023-02-22T10:19:27.488Z,23
2023-02-22T10:24:29.505Z,22
2023-02-22T10:29:31.095Z,23
2023-02-22T10:34:32.307Z,24
2023-02-22T10:39:34.341Z,24
2023-02-22T10:44:35.824Z,23
2023-02-22T10:49:38.052Z,23
2023-02-22T10:54:39.542Z,23
2023-02-22T10:59:41.283Z,24
2023-02-22T11:04:42.873Z,24
2023-02-22T11:09:44.637Z,24
2023-02-22T11:14:46.005Z,25
2023-02-22T11:19:47.593Z,25
2023-02-22T11:24:49.590Z,25
2023-02-22T11:29:50.300Z,27
2023-02-22T11:34:57.514Z,28
2023-02-22T12:15:04.060Z,34
2023-02-22T12:25:09.662Z,35
2023-02-22T12:30:08.099Z,35
2023-02-22T12:35:10.168Z,35
2023-02-22T12:40:12.213Z,36
2023-02-22T12:45:13.404Z,36
2023-02-22T12:50:16.063Z,36
2023-02-22T12:55:17.657Z,36
2023-02-22T13:00:19.555Z,37
2023-02-22T13:05:21.502Z,37
2023-02-22T13:10:23.391Z,38
2023-02-22T13:15:24.794Z,38
2023-02-22T13:20:26.439Z,38
2023-02-22T13:25:28.001Z,39
2023-02-22T13:30:29.425Z,39
2023-02-22T13:35:31.214Z,39
2023-02-22T13:40:32.584Z,39
2023-02-22T13:45:34.463Z,40
2023-02-22T13:50:36.590Z,39
2023-02-22T13:55:38.387Z,39
2023-02-22T14:00:40.506Z,39
2023-02-22T14:05:42.578Z,39
2023-02-22T14:10:43.730Z,39
2023-02-22T14:15:45.121Z,40
2023-02-22T14:20:47.843Z,41
2023-02-22T14:25:49.092Z,42
2023-02-22T14:30:51.145Z,42
2023-02-22T14:35:53.091Z,42
2023-02-22T14:40:55.099Z,42
2023-02-22T14:45:56.891Z,43
2023-02-22T14:46:03.175Z,43
2023-02-22T14:51:15.586Z,43
2023-02-22T14:56:06.496Z,44
2023-02-22T15:01:08.208Z,44
2023-02-22T15:06:09.420Z,44
2023-02-22T15:11:11.259Z,44
2023-02-22T15:16:12.910Z,44
2023-02-22T15:21:14.156Z,44
2023-02-22T15:26:16.201Z,45
2023-02-22T15:31:18.027Z,45
2023-02-22T15:36:19.515Z,45
2023-02-22T15:41:21.478Z,45
2023-02-22T15:46:23.283Z,46
2023-02-22T15:51:24.906Z,46
2023-02-22T15:56:26.909Z,46
2023-02-22T16:01:28.475Z,46
2023-02-22T16:06:30.216Z,47
2023-02-22T16:11:31.499Z,47
2023-02-22T16:16:32.803Z,47
2023-02-22T16:21:34.323Z,47
2023-02-22T16:26:36.201Z,47
2023-02-22T16:31:37.813Z,48
2023-02-22T16:36:39.173Z,48
2023-02-22T16:41:40.808Z,48
2023-02-22T16:46:42.808Z,47
2023-02-22T16:51:44.128Z,48
2023-02-22T16:56:55.910Z,48
2023-02-22T17:01:47.377Z,48
2023-02-22T17:06:49.359Z,49
2023-02-22T17:11:51.408Z,49
2023-02-22T17:16:52.982Z,49
2023-02-22T17:21:54.910Z,50
2023-02-22T17:26:57.046Z,50
2023-02-22T17:31:58.868Z,51
2023-02-22T17:37:00.201Z,50
2023-02-22T17:42:01.549Z,51
2023-02-22T17:47:02.804Z,51
2023-02-22T17:52:04.086Z,52
2023-02-22T17:57:05.432Z,53
2023-02-22T18:02:06.941Z,53
2023-02-22T18:07:08.336Z,54
2023-02-22T18:12:10.429Z,54
2023-02-22T18:17:11.823Z,55
2023-02-22T18:22:13.721Z,56
2023-02-22T18:27:15.596Z,56
2023-02-22T18:32:17.631Z,57
2023-02-22T18:37:19.079Z,58
2023-02-22T18:42:20.740Z,57
2023-02-22T18:47:22.535Z,59
2023-02-22T18:52:24.182Z,59
2023-02-22T18:57:26.060Z,59
2023-02-22T19:02:27.655Z,58
2023-02-22T19:07:29.321Z,58
2023-02-22T19:12:31.231Z,58
2023-02-22T19:17:32.721Z,58
2023-02-22T19:22:34.155Z,58
2023-02-22T19:27:35.684Z,58
2023-02-22T19:32:37.268Z,57
2023-02-22T19:37:39.096Z,56
2023-02-22T19:42:40.202Z,56
2023-02-22T19:47:41.562Z,57
2023-02-22T19:52:43.092Z,56
2023-02-22T19:57:44.586Z,56
2023-02-22T20:02:46.476Z,55
2023-02-22T20:07:48.694Z,56
2023-02-22T20:12:49.941Z,55
2023-02-22T20:17:51.160Z,55
2023-02-22T20:22:53.250Z,56
2023-02-22T20:27:54.497Z,57
2023-02-22T20:32:56.627Z,56
2023-02-22T20:37:58.354Z,57
2023-02-22T20:43:00.269Z,57
2023-02-22T20:48:02.354Z,58
2023-02-22T20:53:04.038Z,57
2023-02-22T20:58:05.474Z,58
2023-02-22T21:03:07.454Z,58
2023-02-22T21:08:09.743Z,58
2023-02-22T21:13:11.631Z,58
2023-02-22T21:18:12.845Z,59
2023-02-22T21:23:15.020Z,59
2023-02-22T21:28:16.202Z,59
2023-02-22T21:33:18.279Z,60
2023-02-22T21:38:19.500Z,60
2023-02-22T21:43:20.837Z,60
2023-02-22T21:48:22.857Z,59
2023-02-22T21:53:24.913Z,61
2023-02-22T21:58:26.495Z,61
2023-02-22T22:03:27.862Z,60
2023-02-22T22:08:29.281Z,61
2023-02-22T22:13:31.187Z,61
2023-02-22T22:18:33.097Z,61
2023-02-22T22:23:34.909Z,61
2023-02-22T22:28:37.072Z,62
2023-02-22T22:33:38.641Z,62
2023-02-22T22:38:40.145Z,61
2023-02-22T22:43:42.277Z,62
2023-02-22T22:48:43.778Z,62
2023-02-22T22:53:45.358Z,62
2023-02-22T22:58:47.278Z,62
2023-02-22T23:13:52.140Z,62
2023-02-22T23:18:54.113Z,62
2023-02-22T23:23:55.767Z,62
2023-02-22T23:28:56.996Z,63
2023-02-22T23:33:58.809Z,63
2023-02-22T23:39:00.875Z,63
2023-02-22T23:44:02.710Z,64
2023-02-22T23:49:04.290Z,63
2023-02-22T23:54:06.104Z,64
2023-02-22T23:59:07.641Z,64
